weerspreuk van de week :Als de schaapjes onrustig aan de hemel staan kan men niet zonder paraplu uit wandelen gaan.

We konden geen weer-waarchuwingen ophalen. Ga rechtstreeks naar de Meteoalarm site : www.meteoalarm.eu en controleer daar .

BCC, Altijd een oplossing in huis

Onweer radar Meer informatie blitzortung!


Regen radar Meer informatie rain snow radar


Bekijk deze sites ook eens:

Awekas

Extra voordeel

Canon

Het weer actueel

Diam Telecom

Dierspecialist (TIP)

Paradigit

Expert

Zooplus

De Kempen, mijn omgeving

Douglas

BOL.com

Weerstation Noordbergum

Inktweb

yourhosting

petsonline

Youfone

bestbuyhoesjes

huisdierexpress

e-matching.

Seniorengeluk

Weerverwachting Samos

Samos actueel

Weerwoord (forum)

Griekenlandforum

Wolven in Nederland



METAR rapporten vliegvelden

   
EBAW - Antwerp
Gewijzigd: 01-07-2022 22:20
Licht bewolkt  
Licht bewolkt  
   Wind: ZZW 9.3 km/h
Wind: ZZW 9.3 km/h
Temperatuur: 17°C
Dauwpunt: 9°C
Vochtigheid: 59%
Barometer: 1021 hPa
Bewolking: Licht bewolkt
Zicht: meer dan 10 km
Bewolking: Licht bewolkt 4500 ft
EBAW 012020Z 21005KT 9999 FEW045 17/09 Q1021 NOSIG
EBLG - Liège
Gewijzigd: 01-07-2022 22:20
Helder  
Helder  
   Wind: Westen 5.6 km/h
Wind: Westen 5.6 km/h
Temperatuur: 16°C
Dauwpunt: 9°C
Vochtigheid: 63%
Barometer: 1022 hPa
Zicht: meer dan 10 km
Bewolking: Helder
EBLG 012020Z 26003KT CAVOK 16/09 Q1022 NOSIG
EBCV - Mons/Bergen
Gewijzigd: 01-07-2022 21:55
Grotendeels bewolkt  
Grotendeels bewolkt  
   Wind: WZW 5.6 km/h
Wind: WZW 5.6 km/h
Temperatuur: 17°C
Dauwpunt: 11°C
Vochtigheid: 68%
Barometer: 1021 hPa
Bewolking: Grotendeels bewolkt
Zicht: meer dan 10 km
Bewolking: Grotendeels bewolkt 8000 ft
EBCV 011955Z AUTO 25003KT 9999 BKN080/// 17/11 Q1021 BLU
EHBK - Maastricht
Gewijzigd: 01-07-2022 22:25
Helder  
Helder  
   Wind: Westen 5.6 km/h
Wind: Westen 5.6 km/h
Temperatuur: 16°C
Dauwpunt: 9°C
Vochtigheid: 63%
Barometer: 1021 hPa
Bewolking: Helder
Zicht: meer dan 10 km
Bewolking: Helder
EHBK 012025Z AUTO 26003KT 220V290 9999 NCD 16/09 Q1021 NOSIG
ELLX - Luxemburg
Gewijzigd: 01-07-2022 22:20
Helder  
Helder  
   Wind: WNW 7.4 km/h
Wind: WNW 7.4 km/h
Temperatuur: 16°C
Dauwpunt: 8°C
Vochtigheid: 59%
Barometer: 1022 hPa
Zicht: meer dan 10 km
Bewolking: Helder
ELLX 012020Z 30004KT 230V320 CAVOK 16/08 Q1022 NOSIG
EBOS - Oostende
Gewijzigd: 01-07-2022 22:20
Helder  
Helder  
   Wind: ZW 13 km/h
Wind: ZW 13 km/h
Temperatuur: 13°C
Dauwpunt: 8°C
Vochtigheid: 72%
Barometer: 1021 hPa
Zicht: meer dan 10 km
Bewolking: Helder
EBOS 012020Z 23007KT CAVOK 13/08 Q1021 NOSIG

Script ontwikkeld door  Saratoga-weather.org Aangepast voor de template door  Weerstation Leuven

U vindt ons ook hier:

Het Weer Aktueel

UK Metoffice

European Weather Network

Weather Underground

AWEKAS

e-Matching.nl ~ Dating hoger opgeleiden